Time;durP1;ratioP1;P1;durP2;ratioP2;P2;SDS_P1;SDS_P2;PMS_P1;PMS_P2;Temp;Humidity;BMP_temperature;BMP_pressure;BME280_temperature;BME280_humidity;BME280_pressure;Samples;Min_cycle;Max_cycle;Signal;HPM_P1;HPM_P2
2023/04/02 00:01:01;;;;;;;;;;;14.00;99.90;;;;;;4994029;28;20000;-16
2023/04/02 00:04:02;;;;;;;;;;;13.90;99.90;;;;;;4994192;28;20241;-16
2023/04/02 00:06:46;;;;;;;;;;;13.90;99.90;;;;;;4996112;28;19987;-16
2023/04/02 00:09:14;;;;;;;;;;;13.90;99.90;;;;;;5009223;28;19920;-13
2023/04/02 00:11:53;;;;;;;;;;;13.90;99.90;;;;;;5069143;28;20099;-13
2023/04/02 00:14:32;;;;;;;;;;;13.90;99.90;;;;;;5071139;28;20371;-16
2023/04/02 00:17:15;;;;;;;;;;;13.80;99.90;;;;;;5070397;28;19979;-17
2023/04/02 00:19:50;;;;;;;;;;;13.80;99.90;;;;;;5072211;28;19948;-16
2023/04/02 00:22:20;;;;;;;;;;;13.80;99.90;;;;;;5069841;28;19912;-15
2023/04/02 00:27:32;;;;;;;;;;;13.80;99.90;;;;;;5073644;28;19919;-16
2023/04/02 00:33:26;;;;;;;;;;;13.80;99.80;;;;;;5077211;28;19928;-18
2023/04/02 00:35:57;;;;;;;;;;;13.80;99.80;;;;;;5077543;28;19947;-17
2023/04/02 00:38:33;;;;;;;;;;;13.70;99.70;;;;;;5057156;28;19931;-18
2023/04/02 00:41:21;;;;;;;;;;;13.70;99.80;;;;;;5073579;28;19919;-17
2023/04/02 00:43:49;;;;;;;;;;;13.70;99.70;;;;;;5058533;28;19909;-17
2023/04/02 00:46:36;;;;;;;;;;;13.70;99.70;;;;;;5057692;28;19990;-14
2023/04/02 00:49:21;;;;;;;;;;;13.70;99.70;;;;;;5075862;28;19908;-16
2023/04/02 00:52:12;;;;;;;;;;;13.70;99.70;;;;;;5075067;28;19969;-18
2023/04/02 00:54:55;;;;;;;;;;;13.70;99.70;;;;;;5075667;28;20380;-16
2023/04/02 00:57:33;;;;;;;;;;;13.70;99.70;;;;;;5076018;28;20007;-16
2023/04/02 01:00:17;;;;;;;;;;;13.70;99.60;;;;;;5012659;28;19913;-13
2023/04/02 01:03:11;;;;;;;;;;;13.60;99.50;;;;;;5013203;28;20041;-15
2023/04/02 01:05:53;;;;;;;;;;;13.60;99.50;;;;;;5013957;28;19909;-18
2023/04/02 01:08:37;;;;;;;;;;;13.60;99.50;;;;;;5014023;28;19937;-17
2023/04/02 01:11:24;;;;;;;;;;;13.60;99.40;;;;;;5014375;28;20271;-18
2023/04/02 01:13:50;;;;;;;;;;;13.60;99.40;;;;;;5013564;28;19920;-17
2023/04/02 01:16:30;;;;;;;;;;;13.60;99.30;;;;;;5015271;28;19914;-14
2023/04/02 01:19:17;;;;;;;;;;;13.60;99.30;;;;;;5014557;28;20485;-17
2023/04/02 01:22:01;;;;;;;;;;;13.50;99.30;;;;;;5014320;28;19909;-15
2023/04/02 01:24:31;;;;;;;;;;;13.50;99.30;;;;;;5015431;28;20291;-16
2023/04/02 01:27:03;;;;;;;;;;;13.50;99.30;;;;;;5014255;28;19909;-14
2023/04/02 01:32:51;;;;;;;;;;;13.50;99.20;;;;;;4973960;28;19922;-15
2023/04/02 01:35:44;;;;;;;;;;;13.50;99.10;;;;;;4972702;28;19910;-16
2023/04/02 01:38:21;;;;;;;;;;;13.40;99.10;;;;;;4994296;28;19922;-18
2023/04/02 01:41:14;;;;;;;;;;;13.40;99.10;;;;;;4994692;28;19953;-18
2023/04/02 01:47:02;;;;;;;;;;;13.40;99.10;;;;;;4994828;28;20056;-17
2023/04/02 01:49:56;;;;;;;;;;;13.40;99.00;;;;;;4994175;28;19917;-16
2023/04/02 01:52:43;;;;;;;;;;;13.40;98.90;;;;;;4994723;28;20211;-16
2023/04/02 01:58:26;;;;;;;;;;;13.30;98.80;;;;;;4993731;28;19917;-15
2023/04/02 02:01:25;;;;;;;;;;;13.30;98.70;;;;;;4995346;28;20280;-17
2023/04/02 02:07:09;;;;;;;;;;;13.30;98.70;;;;;;4982101;28;19976;-12
2023/04/02 02:09:35;;;;;;;;;;;13.30;98.60;;;;;;5051821;28;20335;-15
2023/04/02 02:12:22;;;;;;;;;;;13.20;98.50;;;;;;5054974;28;19920;-16
2023/04/02 02:17:36;;;;;;;;;;;13.20;98.40;;;;;;5077606;28;19919;-15
2023/04/02 02:20:10;;;;;;;;;;;13.20;98.40;;;;;;5076617;28;19979;-15
2023/04/02 02:23:05;;;;;;;;;;;13.20;98.40;;;;;;5058179;28;19916;-17
2023/04/02 02:25:31;;;;;;;;;;;13.10;98.30;;;;;;5015224;28;20297;-17
2023/04/02 02:28:16;;;;;;;;;;;13.10;98.30;;;;;;5014488;28;20350;-17
2023/04/02 02:33:43;;;;;;;;;;;13.10;98.30;;;;;;5013626;28;19975;-19
2023/04/02 02:36:17;;;;;;;;;;;13.10;98.30;;;;;;5013869;28;19920;-18
2023/04/02 02:38:52;;;;;;;;;;;13.10;98.20;;;;;;5014073;28;20413;-15
2023/04/02 02:41:41;;;;;;;;;;;13.00;98.20;;;;;;5014216;28;19914;-16
2023/04/02 02:44:30;;;;;;;;;;;13.00;98.10;;;;;;5014199;28;19996;-18
2023/04/02 02:47:10;;;;;;;;;;;13.00;98.10;;;;;;4936650;29;19910;-14
2023/04/02 02:49:46;;;;;;;;;;;13.00;98.10;;;;;;4935668;29;19915;-18
2023/04/02 02:52:30;;;;;;;;;;;13.00;98.10;;;;;;4986865;28;19924;-19
2023/04/02 02:58:26;;;;;;;;;;;13.00;98.00;;;;;;5074573;28;19973;-16
2023/04/02 03:01:04;;;;;;;;;;;12.90;98.00;;;;;;5071732;28;19944;-15
2023/04/02 03:03:49;;;;;;;;;;;12.90;98.00;;;;;;5071983;28;20007;-16
2023/04/02 03:06:45;;;;;;;;;;;12.90;98.00;;;;;;5071911;28;19956;-17
2023/04/02 03:09:35;;;;;;;;;;;12.90;97.90;;;;;;5054603;28;20201;-17
2023/04/02 03:12:13;;;;;;;;;;;12.80;97.90;;;;;;5055836;28;19943;-16
2023/04/02 03:15:01;;;;;;;;;;;12.80;97.90;;;;;;5056552;28;19908;-19
2023/04/02 03:17:35;;;;;;;;;;;12.80;97.80;;;;;;5056945;28;20213;-17
2023/04/02 03:20:22;;;;;;;;;;;12.80;97.70;;;;;;5073132;28;19954;-18
2023/04/02 03:23:16;;;;;;;;;;;12.80;97.70;;;;;;5055014;28;19965;-16
2023/04/02 03:28:47;;;;;;;;;;;12.80;97.60;;;;;;5072494;28;20035;-17
2023/04/02 03:31:24;;;;;;;;;;;12.70;97.50;;;;;;5072417;28;19916;-18
2023/04/02 03:37:21;;;;;;;;;;;12.70;97.50;;;;;;5074208;28;19915;-15
2023/04/02 03:40:11;;;;;;;;;;;12.70;97.40;;;;;;5057850;28;19908;-14
2023/04/02 03:42:55;;;;;;;;;;;12.70;97.40;;;;;;5074515;28;19912;-16
2023/04/02 03:45:27;;;;;;;;;;;12.60;97.30;;;;;;5058266;28;19936;-17
2023/04/02 03:48:10;;;;;;;;;;;12.70;97.10;;;;;;5074930;28;19912;-15
2023/04/02 03:51:11;;;;;;;;;;;12.70;97.00;;;;;;5057370;28;19963;-15
2023/04/02 03:53:41;;;;;;;;;;;12.70;96.90;;;;;;5012237;28;19922;-16
2023/04/02 03:59:13;;;;;;;;;;;12.70;96.60;;;;;;5012438;28;19924;-15
2023/04/02 04:01:57;;;;;;;;;;;12.80;96.40;;;;;;5013019;28;20184;-16
2023/04/02 04:04:38;;;;;;;;;;;12.80;96.20;;;;;;5052015;28;19923;-16
2023/04/02 04:07:30;;;;;;;;;;;12.80;96.00;;;;;;5037075;28;19915;-15
2023/04/02 04:10:14;;;;;;;;;;;12.80;95.90;;;;;;4980809;28;19921;-13
2023/04/02 04:13:00;;;;;;;;;;;12.90;95.70;;;;;;4997321;28;19918;-15
2023/04/02 04:15:44;;;;;;;;;;;12.90;95.40;;;;;;5028038;28;19917;-14
2023/04/02 04:18:37;;;;;;;;;;;13.00;95.20;;;;;;5037567;28;19935;-14
2023/04/02 04:24:08;;;;;;;;;;;12.90;95.00;;;;;;5037967;28;19936;-16
2023/04/02 04:26:52;;;;;;;;;;;12.90;94.90;;;;;;5021812;28;19970;-14
2023/04/02 04:32:37;;;;;;;;;;;12.90;94.80;;;;;;5036427;28;19951;-16
2023/04/02 04:35:41;;;;;;;;;;;12.90;94.80;;;;;;5036696;28;19999;-16
2023/04/02 04:41:37;;;;;;;;;;;12.80;94.70;;;;;;5016799;28;19917;-16
2023/04/02 04:44:16;;;;;;;;;;;12.80;94.80;;;;;;5016780;28;20064;-16
2023/04/02 04:47:00;;;;;;;;;;;12.80;94.70;;;;;;5015658;28;19910;-15
2023/04/02 04:49:31;;;;;;;;;;;12.80;94.70;;;;;;5016316;28;19920;-16
2023/04/02 04:52:35;;;;;;;;;;;12.80;94.60;;;;;;5016806;28;20108;-15
2023/04/02 04:55:21;;;;;;;;;;;12.70;94.60;;;;;;4996209;28;19949;-17
2023/04/02 04:57:52;;;;;;;;;;;12.70;94.50;;;;;;5016737;28;19913;-14
2023/04/02 05:03:38;;;;;;;;;;;12.70;94.50;;;;;;5015955;28;20005;-15
2023/04/02 05:06:31;;;;;;;;;;;12.70;94.50;;;;;;5016935;28;19929;-17
2023/04/02 05:09:06;;;;;;;;;;;12.60;94.50;;;;;;5013977;28;19948;-14
2023/04/02 05:11:50;;;;;;;;;;;12.60;94.50;;;;;;5015239;28;19924;-14
2023/04/02 05:14:31;;;;;;;;;;;12.60;94.40;;;;;;4998825;28;19953;-15
2023/04/02 05:20:08;;;;;;;;;;;12.60;94.20;;;;;;5035868;28;19940;-15
2023/04/02 05:22:59;;;;;;;;;;;12.70;94.00;;;;;;5035932;28;19913;-15
2023/04/02 05:25:31;;;;;;;;;;;12.70;93.80;;;;;;5035896;28;19909;-15
2023/04/02 05:28:21;;;;;;;;;;;12.70;93.70;;;;;;5036195;28;20243;-14
2023/04/02 05:34:11;;;;;;;;;;;12.80;93.40;;;;;;5035110;28;20198;-17
2023/04/02 05:36:45;;;;;;;;;;;12.80;93.20;;;;;;5035124;28;19942;-13
2023/04/02 05:39:20;;;;;;;;;;;12.80;93.10;;;;;;5032861;28;20256;-15
2023/04/02 05:42:07;;;;;;;;;;;12.80;93.00;;;;;;5034256;28;19970;-15
2023/04/02 05:47:30;;;;;;;;;;;12.80;92.80;;;;;;5075239;28;19916;-15
2023/04/02 05:50:14;;;;;;;;;;;12.80;92.60;;;;;;5032991;28;20178;-16
2023/04/02 05:52:59;;;;;;;;;;;12.80;92.60;;;;;;5033417;28;19921;-18
2023/04/02 05:55:52;;;;;;;;;;;12.80;92.50;;;;;;5017320;28;20166;-18
2023/04/02 06:01:44;;;;;;;;;;;12.70;92.50;;;;;;4953226;29;20318;-17
2023/04/02 06:04:34;;;;;;;;;;;12.70;92.40;;;;;;5014726;28;19913;-19
2023/04/02 06:07:36;;;;;;;;;;;12.70;92.30;;;;;;5016320;28;19970;-19
2023/04/02 06:10:14;;;;;;;;;;;12.70;92.20;;;;;;5016308;28;19920;-17
2023/04/02 06:13:11;;;;;;;;;;;12.70;92.10;;;;;;5031209;28;19921;-16
2023/04/02 06:15:52;;;;;;;;;;;12.70;92.00;;;;;;5034685;28;19971;-15
2023/04/02 06:18:28;;;;;;;;;;;12.70;92.00;;;;;;5015970;28;19917;-18
2023/04/02 06:21:04;;;;;;;;;;;12.80;91.90;;;;;;5035576;28;20169;-18
2023/04/02 06:23:42;;;;;;;;;;;12.80;91.80;;;;;;5073132;28;20229;-14
2023/04/02 06:26:20;;;;;;;;;;;12.80;91.70;;;;;;5074774;28;19920;-19
2023/04/02 06:29:04;;;;;;;;;;;12.80;91.60;;;;;;5072855;28;19909;-18
2023/04/02 06:32:10;;;;;;;;;;;12.70;91.50;;;;;;5058193;28;19917;-17
2023/04/02 06:34:39;;;;;;;;;;;12.70;91.40;;;;;;5072573;28;20198;-18
2023/04/02 06:40:47;;;;;;;;;;;12.80;91.30;;;;;;5072288;28;19916;-19
2023/04/02 06:43:32;;;;;;;;;;;12.80;91.20;;;;;;5071074;28;19919;-17
2023/04/02 06:46:16;;;;;;;;;;;12.80;91.10;;;;;;5053179;28;19912;-19
2023/04/02 06:48:46;;;;;;;;;;;12.70;91.00;;;;;;5055279;28;19909;-17
2023/04/02 06:51:30;;;;;;;;;;;12.70;91.00;;;;;;5072294;28;19923;-16
2023/04/02 06:53:56;;;;;;;;;;;12.70;91.00;;;;;;5073198;28;19942;-17
2023/04/02 06:56:36;;;;;;;;;;;12.70;90.90;;;;;;5054777;28;19924;-19
2023/04/02 07:02:13;;;;;;;;;;;12.80;90.40;;;;;;5073163;28;20311;-19
2023/04/02 07:04:42;;;;;;;;;;;12.90;90.10;;;;;;5053455;28;19917;-18
2023/04/02 07:07:07;;;;;;;;;;;13.00;89.40;;;;;;5054943;28;19944;-17
2023/04/02 07:09:33;;;;;;;;;;;13.00;88.90;;;;;;5071703;28;19990;-16
2023/04/02 07:12:11;;;;;;;;;;;13.10;88.20;;;;;;5053305;28;19917;-16
2023/04/02 07:15:02;;;;;;;;;;;13.10;87.70;;;;;;5052866;28;19912;-17
2023/04/02 07:17:35;;;;;;;;;;;13.20;87.00;;;;;;5053022;28;19952;-18
2023/04/02 07:20:19;;;;;;;;;;;13.20;86.50;;;;;;5072276;28;20328;-17
2023/04/02 07:23:07;;;;;;;;;;;13.20;85.80;;;;;;5054817;28;19932;-18
2023/04/02 07:25:32;;;;;;;;;;;13.30;85.70;;;;;;5055315;28;19994;-15
2023/04/02 07:27:58;;;;;;;;;;;13.30;84.90;;;;;;5073425;28;20221;-15
2023/04/02 07:30:23;;;;;;;;;;;13.30;84.50;;;;;;5055871;28;20159;-17
2023/04/02 07:32:54;;;;;;;;;;;13.30;84.30;;;;;;5072387;28;19955;-16
2023/04/02 07:35:21;;;;;;;;;;;13.30;84.00;;;;;;5053424;28;20274;-19
2023/04/02 07:38:07;;;;;;;;;;;13.30;83.80;;;;;;5072876;28;19935;-16
2023/04/02 07:40:36;;;;;;;;;;;13.40;83.70;;;;;;5054454;28;20174;-15
2023/04/02 07:43:47;;;;;;;;;;;13.30;83.60;;;;;;5052028;28;20171;-16
2023/04/02 07:46:02;;;;;;;;;;;13.30;83.50;;;;;;5059910;28;20274;-19
2023/04/02 07:48:34;;;;;;;;;;;13.30;83.60;;;;;;5059605;28;19908;-17
2023/04/02 07:51:28;;;;;;;;;;;13.20;83.80;;;;;;5077803;28;20061;-16
2023/04/02 07:54:14;;;;;;;;;;;13.20;84.20;;;;;;5054982;28;20083;-16
2023/04/02 07:56:52;;;;;;;;;;;13.10;85.40;;;;;;5071366;28;19939;-17
2023/04/02 07:59:23;;;;;;;;;;;13.00;84.90;;;;;;5053045;28;20209;-16
2023/04/02 08:02:09;;;;;;;;;;;13.00;84.90;;;;;;5053817;28;20218;-18
2023/04/02 08:04:34;;;;;;;;;;;13.00;85.00;;;;;;5043542;28;20150;-16
2023/04/02 08:07:06;;;;;;;;;;;12.90;84.90;;;;;;5071383;28;20257;-17
2023/04/02 08:09:35;;;;;;;;;;;12.90;84.70;;;;;;5052762;28;20003;-15
2023/04/02 08:12:06;;;;;;;;;;;12.90;84.50;;;;;;5070607;28;19939;-18
2023/04/02 08:15:05;;;;;;;;;;;12.90;84.30;;;;;;5071271;28;20313;-17
2023/04/02 08:17:44;;;;;;;;;;;12.90;84.00;;;;;;5055778;28;19966;-19
2023/04/02 08:20:30;;;;;;;;;;;13.00;83.80;;;;;;5055918;28;19912;-21
2023/04/02 08:22:59;;;;;;;;;;;13.10;83.40;;;;;;5073572;28;19923;-16
2023/04/02 08:25:26;;;;;;;;;;;13.10;82.90;;;;;;5071776;28;20252;-17
2023/04/02 08:27:51;;;;;;;;;;;13.10;82.30;;;;;;5054462;28;19909;-19
2023/04/02 08:30:17;;;;;;;;;;;13.20;81.70;;;;;;5073625;28;19919;-16
2023/04/02 08:33:01;;;;;;;;;;;13.20;81.20;;;;;;5052706;28;19913;-16
2023/04/02 08:35:26;;;;;;;;;;;13.20;80.90;;;;;;5072726;28;20253;-19
2023/04/02 08:38:01;;;;;;;;;;;13.30;80.50;;;;;;5072515;28;20228;-18
2023/04/02 08:40:37;;;;;;;;;;;13.30;80.10;;;;;;5052934;28;19920;-17
2023/04/02 08:43:37;;;;;;;;;;;13.20;79.50;;;;;;5054266;28;20178;-17
2023/04/02 08:46:13;;;;;;;;;;;13.20;79.20;;;;;;5070516;28;19969;-16
2023/04/02 08:48:57;;;;;;;;;;;13.30;79.00;;;;;;5071200;28;19916;-17
2023/04/02 08:51:34;;;;;;;;;;;13.30;78.70;;;;;;5074001;28;19939;-17
2023/04/02 08:54:31;;;;;;;;;;;13.30;78.50;;;;;;5074936;28;19936;-16
2023/04/02 08:57:15;;;;;;;;;;;13.30;78.30;;;;;;5055673;28;19909;-16
2023/04/02 08:59:57;;;;;;;;;;;13.20;78.20;;;;;;5073666;28;20166;-16
2023/04/02 09:02:37;;;;;;;;;;;13.30;78.20;;;;;;5073133;28;20281;-17
2023/04/02 09:05:06;;;;;;;;;;;13.20;78.00;;;;;;5056009;28;20098;-16
2023/04/02 09:07:33;;;;;;;;;;;13.30;77.90;;;;;;5056176;28;20363;-16
2023/04/02 09:10:02;;;;;;;;;;;13.30;77.80;;;;;;5074471;28;20056;-16
2023/04/02 09:12:35;;;;;;;;;;;13.30;77.70;;;;;;5055384;28;20227;-16
2023/04/02 09:15:12;;;;;;;;;;;13.30;77.50;;;;;;5073336;28;19909;-14
2023/04/02 09:17:41;;;;;;;;;;;13.20;77.40;;;;;;5071865;28;19919;-17
2023/04/02 09:20:25;;;;;;;;;;;13.20;77.20;;;;;;5073351;28;20148;-16
2023/04/02 09:23:06;;;;;;;;;;;13.20;77.20;;;;;;5080207;28;19920;-17
2023/04/02 09:28:42;;;;;;;;;;;13.10;77.40;;;;;;5046833;28;19939;-19
2023/04/02 09:31:18;;;;;;;;;;;13.10;77.40;;;;;;5072391;28;19908;-16
2023/04/02 09:36:37;;;;;;;;;;;13.10;77.20;;;;;;5070122;28;19966;-17
2023/04/02 09:39:28;;;;;;;;;;;13.20;77.10;;;;;;5070072;28;19909;-16
2023/04/02 09:41:53;;;;;;;;;;;13.20;76.70;;;;;;5072072;28;19919;-16
2023/04/02 09:44:26;;;;;;;;;;;13.30;76.20;;;;;;5072161;28;20067;-17
2023/04/02 09:49:40;;;;;;;;;;;13.40;74.90;;;;;;5075107;28;19998;-16
2023/04/02 09:52:20;;;;;;;;;;;13.50;74.30;;;;;;5072770;28;19982;-16
2023/04/02 09:55:04;;;;;;;;;;;13.60;73.80;;;;;;5071913;28;19939;-17
2023/04/02 09:57:39;;;;;;;;;;;13.70;72.90;;;;;;5054372;28;20282;-20
2023/04/02 10:00:12;;;;;;;;;;;13.80;72.20;;;;;;5073546;28;19913;-19
2023/04/02 10:02:57;;;;;;;;;;;13.90;71.60;;;;;;5054670;28;20140;-16
2023/04/02 10:05:23;;;;;;;;;;;13.90;70.90;;;;;;5072668;28;20210;-20
2023/04/02 10:07:52;;;;;;;;;;;13.90;70.40;;;;;;5072460;28;19908;-19
2023/04/02 10:10:23;;;;;;;;;;;14.00;70.20;;;;;;5073219;28;19974;-17
2023/04/02 10:13:20;;;;;;;;;;;14.00;70.00;;;;;;5057885;28;19913;-19
2023/04/02 10:16:01;;;;;;;;;;;14.00;70.10;;;;;;5074000;28;19970;-19
2023/04/02 10:18:45;;;;;;;;;;;13.90;70.00;;;;;;5055422;28;19919;-16
2023/04/02 10:21:14;;;;;;;;;;;13.90;70.20;;;;;;5055562;28;19920;-17
2023/04/02 10:23:40;;;;;;;;;;;13.90;70.30;;;;;;5055485;28;19912;-18
2023/04/02 10:26:06;;;;;;;;;;;13.80;70.30;;;;;;5054497;28;20213;-17
2023/04/02 10:31:57;;;;;;;;;;;13.70;70.80;;;;;;5060197;28;20015;-16
2023/04/02 10:34:46;;;;;;;;;;;13.70;71.10;;;;;;5072593;28;20099;-19
2023/04/02 10:37:31;;;;;;;;;;;13.60;71.50;;;;;;5070923;28;19908;-13
2023/04/02 10:40:08;;;;;;;;;;;13.60;71.70;;;;;;5050320;28;20022;-16
2023/04/02 10:42:37;;;;;;;;;;;13.60;71.90;;;;;;5070300;28;19909;-16
2023/04/02 10:48:21;;;;;;;;;;;13.50;72.10;;;;;;5070326;28;19962;-17
2023/04/02 10:50:55;;;;;;;;;;;13.50;72.20;;;;;;5071364;28;19913;-17
2023/04/02 10:53:39;;;;;;;;;;;13.50;72.30;;;;;;5054081;28;20158;-18
2023/04/02 10:56:14;;;;;;;;;;;13.50;72.40;;;;;;5068787;28;20194;-17
2023/04/02 10:59:12;;;;;;;;;;;13.50;72.30;;;;;;5051877;28;19981;-16
2023/04/02 11:01:42;;;;;;;;;;;13.50;72.30;;;;;;5007033;28;19941;-19
2023/04/02 11:04:33;;;;;;;;;;;13.50;72.50;;;;;;5016093;28;19934;-17
2023/04/02 11:07:27;;;;;;;;;;;13.50;73.10;;;;;;5060425;28;20126;-19
2023/04/02 11:09:55;;;;;;;;;;;13.50;72.50;;;;;;5053265;28;19935;-17
2023/04/02 11:12:20;;;;;;;;;;;13.50;72.60;;;;;;5070381;28;19986;-19
2023/04/02 11:14:55;;;;;;;;;;;13.50;72.50;;;;;;5026756;28;19948;-16
2023/04/02 11:17:21;;;;;;;;;;;13.50;72.50;;;;;;5027043;28;19909;-16
2023/04/02 11:20:08;;;;;;;;;;;13.50;72.40;;;;;;5009916;28;19920;-18
2023/04/02 11:22:40;;;;;;;;;;;13.50;72.30;;;;;;5010221;28;19929;-19
2023/04/02 11:25:19;;;;;;;;;;;13.50;72.10;;;;;;5027811;28;19909;-18
2023/04/02 11:27:48;;;;;;;;;;;13.50;72.70;;;;;;5030703;28;19932;-18
2023/04/02 11:30:19;;;;;;;;;;;13.50;72.10;;;;;;5010029;28;20119;-18
2023/04/02 11:32:49;;;;;;;;;;;13.50;72.20;;;;;;5026131;28;19913;-17
2023/04/02 11:35:29;;;;;;;;;;;13.50;72.30;;;;;;5009253;28;20384;-16
2023/04/02 11:38:13;;;;;;;;;;;13.50;72.30;;;;;;5024886;28;19925;-17
2023/04/02 11:41:01;;;;;;;;;;;13.50;72.10;;;;;;5026481;28;20107;-19
2023/04/02 11:43:40;;;;;;;;;;;13.60;72.10;;;;;;5027125;28;19963;-17
2023/04/02 11:46:27;;;;;;;;;;;13.60;71.80;;;;;;5042496;28;19923;-17
2023/04/02 11:49:17;;;;;;;;;;;13.60;71.70;;;;;;5050429;28;19912;-17
2023/04/02 11:51:47;;;;;;;;;;;13.60;71.40;;;;;;5005083;28;19914;-17
2023/04/02 11:54:37;;;;;;;;;;;13.60;71.20;;;;;;4987213;28;20299;-19
2023/04/02 11:57:38;;;;;;;;;;;13.60;71.10;;;;;;5002803;28;19910;-15
2023/04/02 12:00:12;;;;;;;;;;;13.70;70.90;;;;;;4975625;28;20322;-15
2023/04/02 12:03:06;;;;;;;;;;;13.70;70.70;;;;;;5028446;28;19912;-14
2023/04/02 12:05:44;;;;;;;;;;;13.70;70.80;;;;;;5052567;28;19997;-20
2023/04/02 12:08:10;;;;;;;;;;;13.70;70.40;;;;;;5080782;28;19908;-18
2023/04/02 12:10:54;;;;;;;;;;;13.70;70.30;;;;;;5098322;28;20270;-17
2023/04/02 12:13:39;;;;;;;;;;;13.70;70.20;;;;;;5079924;28;20238;-20
2023/04/02 12:16:33;;;;;;;;;;;13.70;70.10;;;;;;5072069;28;19915;-16
2023/04/02 12:19:02;;;;;;;;;;;13.70;70.00;;;;;;5072221;28;19991;-17
2023/04/02 12:21:30;;;;;;;;;;;13.70;70.00;;;;;;5090971;28;19916;-16
2023/04/02 12:24:02;;;;;;;;;;;13.70;69.90;;;;;;5074116;28;19916;-19
2023/04/02 12:26:36;;;;;;;;;;;13.70;70.00;;;;;;5094482;28;19918;-18
2023/04/02 12:29:25;;;;;;;;;;;13.70;70.10;;;;;;5076776;28;19990;-17
2023/04/02 12:31:59;;;;;;;;;;;13.60;70.20;;;;;;5096004;28;19912;-17
2023/04/02 12:34:28;;;;;;;;;;;13.60;70.30;;;;;;5096879;28;19919;-18
2023/04/02 12:37:02;;;;;;;;;;;13.60;70.50;;;;;;5076591;28;19915;-16
2023/04/02 12:39:28;;;;;;;;;;;13.60;70.60;;;;;;5076159;28;19920;-16
2023/04/02 12:41:57;;;;;;;;;;;13.50;70.70;;;;;;5093285;28;20041;-20
2023/04/02 12:44:43;;;;;;;;;;;13.50;71.20;;;;;;5075155;28;19999;-16
2023/04/02 12:47:13;;;;;;;;;;;13.50;71.40;;;;;;5073967;28;20404;-18
2023/04/02 12:49:47;;;;;;;;;;;13.40;71.50;;;;;;5094530;28;19908;-19
2023/04/02 12:52:19;;;;;;;;;;;13.40;71.60;;;;;;5075287;28;20169;-18
2023/04/02 12:54:52;;;;;;;;;;;13.40;71.60;;;;;;5092346;28;19908;-17
2023/04/02 12:57:35;;;;;;;;;;;13.40;71.70;;;;;;5092207;28;19909;-20
2023/04/02 13:00:05;;;;;;;;;;;13.40;71.80;;;;;;5091031;28;19919;-19
2023/04/02 13:02:37;;;;;;;;;;;13.40;71.90;;;;;;5091979;28;20090;-15
2023/04/02 13:05:06;;;;;;;;;;;13.40;71.90;;;;;;5093041;28;20260;-19
2023/04/02 13:07:32;;;;;;;;;;;13.40;71.90;;;;;;5094457;28;19908;-15
2023/04/02 13:10:02;;;;;;;;;;;13.40;71.90;;;;;;5081083;28;20000;-17
2023/04/02 13:12:32;;;;;;;;;;;13.30;71.90;;;;;;5094924;28;19919;-18
2023/04/02 13:14:59;;;;;;;;;;;13.30;71.90;;;;;;5094078;28;20210;-16
2023/04/02 13:17:40;;;;;;;;;;;13.30;72.00;;;;;;5094884;28;20173;-17
2023/04/02 13:20:28;;;;;;;;;;;13.30;72.00;;;;;;5094353;28;20297;-17
2023/04/02 13:22:54;;;;;;;;;;;13.30;72.10;;;;;;5074878;28;20034;-15
2023/04/02 13:25:22;;;;;;;;;;;13.30;72.10;;;;;;5091211;28;19915;-15
2023/04/02 13:27:48;;;;;;;;;;;13.30;72.10;;;;;;5075237;28;19912;-17
2023/04/02 13:30:23;;;;;;;;;;;13.30;72.20;;;;;;5092409;28;20139;-15
2023/04/02 13:32:48;;;;;;;;;;;13.30;72.10;;;;;;5093351;28;19920;-15
2023/04/02 13:35:14;;;;;;;;;;;13.30;71.90;;;;;;5092178;28;20015;-16
2023/04/02 13:37:42;;;;;;;;;;;13.40;71.70;;;;;;5090708;28;19973;-15
2023/04/02 13:40:30;;;;;;;;;;;13.40;71.50;;;;;;5074676;28;19955;-18
2023/04/02 13:42:56;;;;;;;;;;;13.40;71.30;;;;;;5091220;28;19908;-16
2023/04/02 13:45:26;;;;;;;;;;;13.40;71.20;;;;;;5091411;28;19919;-17
2023/04/02 13:47:52;;;;;;;;;;;13.50;71.10;;;;;;5073154;28;20266;-16
2023/04/02 13:50:25;;;;;;;;;;;13.50;71.00;;;;;;5073210;28;19990;-18
2023/04/02 13:52:58;;;;;;;;;;;13.50;70.80;;;;;;5088410;28;20014;-16
2023/04/02 13:58:45;;;;;;;;;;;13.60;70.40;;;;;;5048423;28;20057;-17
2023/04/02 14:01:16;;;;;;;;;;;13.60;70.30;;;;;;5033477;28;19970;-17
2023/04/02 14:03:45;;;;;;;;;;;13.60;70.00;;;;;;5048360;28;19944;-15
2023/04/02 14:06:30;;;;;;;;;;;13.70;69.90;;;;;;5050818;28;19917;-17
2023/04/02 14:09:04;;;;;;;;;;;13.70;69.50;;;;;;5047989;28;19938;-14
2023/04/02 14:14:54;;;;;;;;;;;13.80;69.30;;;;;;5067288;28;20073;-14
2023/04/02 14:17:46;;;;;;;;;;;13.80;69.10;;;;;;5073925;28;20057;-19
2023/04/02 14:20:12;;;;;;;;;;;13.80;69.20;;;;;;5091237;28;19913;-16
2023/04/02 14:23:02;;;;;;;;;;;13.80;69.40;;;;;;5075285;28;19912;-18
2023/04/02 14:25:31;;;;;;;;;;;13.80;69.50;;;;;;5069868;28;20350;-16
2023/04/02 14:28:22;;;;;;;;;;;13.70;69.80;;;;;;5078217;28;19999;-16
2023/04/02 14:31:15;;;;;;;;;;;13.70;70.00;;;;;;5079228;28;19919;-17
2023/04/02 14:34:04;;;;;;;;;;;13.60;70.20;;;;;;5065762;28;20323;-17
2023/04/02 14:36:55;;;;;;;;;;;13.60;70.40;;;;;;5060595;28;19916;-17
2023/04/02 14:39:42;;;;;;;;;;;13.50;70.40;;;;;;5068787;28;20309;-16
2023/04/02 14:42:40;;;;;;;;;;;13.50;70.50;;;;;;5060965;28;19920;-18
2023/04/02 14:45:14;;;;;;;;;;;13.50;70.50;;;;;;4996343;28;20231;-15
2023/04/02 14:47:44;;;;;;;;;;;13.50;70.40;;;;;;4980127;28;19913;-17
2023/04/02 14:50:11;;;;;;;;;;;13.40;70.50;;;;;;4979497;28;19953;-16
2023/04/02 14:52:53;;;;;;;;;;;13.40;70.30;;;;;;4979646;28;19914;-16
2023/04/02 14:55:54;;;;;;;;;;;13.30;70.40;;;;;;4979605;28;20212;-20
2023/04/02 14:58:38;;;;;;;;;;;13.30;70.30;;;;;;4976198;28;19980;-16
2023/04/02 15:01:12;;;;;;;;;;;13.30;70.30;;;;;;5026314;28;19916;-16
2023/04/02 15:03:48;;;;;;;;;;;13.30;70.40;;;;;;5077631;28;19974;-19
2023/04/02 15:06:20;;;;;;;;;;;13.30;70.50;;;;;;5060174;28;20383;-17
2023/04/02 15:09:04;;;;;;;;;;;13.20;70.40;;;;;;5077508;28;19951;-15
2023/04/02 15:11:38;;;;;;;;;;;13.20;70.50;;;;;;5077716;28;19951;-18
2023/04/02 15:14:17;;;;;;;;;;;13.20;70.50;;;;;;5077541;28;19909;-20
2023/04/02 15:16:43;;;;;;;;;;;13.20;70.40;;;;;;5059596;28;19908;-15
2023/04/02 15:19:18;;;;;;;;;;;13.20;70.40;;;;;;5077007;28;19938;-14
2023/04/02 15:21:56;;;;;;;;;;;13.10;70.40;;;;;;5077875;28;20305;-17
2023/04/02 15:24:39;;;;;;;;;;;13.20;70.60;;;;;;5076839;28;19973;-18
2023/04/02 15:27:26;;;;;;;;;;;13.10;70.60;;;;;;5077190;28;19917;-17
2023/04/02 15:32:38;;;;;;;;;;;13.10;70.70;;;;;;5094696;22;19974;-19
2023/04/02 15:35:07;;;;;;;;;;;13.00;70.80;;;;;;5075562;28;19923;-18
2023/04/02 15:37:51;;;;;;;;;;;13.00;70.80;;;;;;5093721;28;19908;-16
2023/04/02 15:40:39;;;;;;;;;;;13.00;70.80;;;;;;5095882;28;19920;-16
2023/04/02 15:43:05;;;;;;;;;;;13.00;70.90;;;;;;5080246;28;19908;-17
2023/04/02 15:45:36;;;;;;;;;;;13.00;70.70;;;;;;5091404;28;19919;-16
2023/04/02 15:48:14;;;;;;;;;;;13.10;70.10;;;;;;5087606;28;19915;-18
2023/04/02 15:50:43;;;;;;;;;;;13.30;69.40;;;;;;5071868;28;19912;-16
2023/04/02 15:53:09;;;;;;;;;;;13.40;68.40;;;;;;5072778;28;19919;-18
2023/04/02 15:55:47;;;;;;;;;;;13.50;67.80;;;;;;5071656;28;20139;-19
2023/04/02 16:01:29;;;;;;;;;;;13.70;66.80;;;;;;5095038;28;19948;-18
2023/04/02 16:04:36;;;;;;;;;;;13.90;65.30;;;;;;5075500;28;20253;-19
2023/04/02 16:07:20;;;;;;;;;;;14.00;64.70;;;;;;4995512;28;19998;-19
2023/04/02 16:09:52;;;;;;;;;;;14.00;64.20;;;;;;5011230;28;19952;-17
2023/04/02 16:12:18;;;;;;;;;;;14.00;64.20;;;;;;5045401;28;19912;-19
2023/04/02 16:14:48;;;;;;;;;;;14.00;64.20;;;;;;5092348;28;19915;-18
2023/04/02 16:17:23;;;;;;;;;;;14.00;64.30;;;;;;5074328;28;20297;-15
2023/04/02 16:19:58;;;;;;;;;;;14.00;64.20;;;;;;5091077;28;19981;-18
2023/04/02 16:22:33;;;;;;;;;;;14.00;64.30;;;;;;5079961;28;20234;-16
2023/04/02 16:25:07;;;;;;;;;;;13.90;64.50;;;;;;5092686;28;19908;-17
2023/04/02 16:27:56;;;;;;;;;;;13.80;64.70;;;;;;5091312;28;19908;-18
2023/04/02 16:30:43;;;;;;;;;;;13.80;65.20;;;;;;5091801;28;20261;-19
2023/04/02 16:33:15;;;;;;;;;;;13.70;65.50;;;;;;5091882;28;20019;-17
2023/04/02 16:35:49;;;;;;;;;;;13.60;66.00;;;;;;5093170;28;19919;-18
2023/04/02 16:38:29;;;;;;;;;;;13.50;66.30;;;;;;5090759;28;19972;-15
2023/04/02 16:43:57;;;;;;;;;;;13.30;66.90;;;;;;5091515;28;19934;-18
2023/04/02 16:46:38;;;;;;;;;;;13.20;67.20;;;;;;5074794;28;19908;-17
2023/04/02 16:49:10;;;;;;;;;;;13.10;67.70;;;;;;5073739;28;19908;-18
2023/04/02 16:51:39;;;;;;;;;;;13.10;68.00;;;;;;5072557;28;19909;-15
2023/04/02 16:54:10;;;;;;;;;;;13.00;68.30;;;;;;5073167;28;19916;-18
2023/04/02 16:56:48;;;;;;;;;;;12.90;68.60;;;;;;5090640;28;20050;-17
2023/04/02 16:59:35;;;;;;;;;;;12.90;69.00;;;;;;5074177;28;19915;-16